Terminal Aerodrome Forecast
Issued by NWS

Home | Current Version | Previous Version | Text Only | Print | Product List | Glossary Off
Versions: 1 2 3 4 5 6 7 8 9 10 11 12 13 14

000
FTUS43 KICT 291340 AAA
TAFRSL
TAF AMD
KRSL 291340Z 2914/3012 VRB06KT P6SM VCSH BKN100
     FM291700 06012KT P6SM VCSH BKN100
     FM292300 07006KT P6SM BKN080=

USA.gov is the U.S. government's official web portal to all federal, state and local government web resources and services.